createdAt,value
2023-01-15T00:02:09.924Z,99993.78
2023-01-15T00:07:04.704Z,99980.84
2023-01-15T00:11:57.619Z,99971.48
2023-01-15T00:16:54.457Z,99962.45
2023-01-15T00:21:47.385Z,99948.19
2023-01-15T00:26:59.386Z,99944.93
2023-01-15T00:31:58.797Z,99933.80
2023-01-15T00:36:51.857Z,99916.30
2023-01-15T00:41:44.749Z,99909.94
2023-01-15T00:46:37.966Z,99899.48
2023-01-15T00:51:31.252Z,99900.66
2023-01-15T00:56:24.295Z,99890.87
2023-01-15T01:01:17.717Z,99886.38
2023-01-15T01:06:10.816Z,99878.82
2023-01-15T01:11:12.551Z,99870.34
2023-01-15T01:16:06.788Z,99863.05
2023-01-15T01:21:02.104Z,99869.55
2023-01-15T01:25:55.088Z,99863.35
2023-01-15T01:30:48.340Z,99856.59
2023-01-15T01:35:48.796Z,99850.91
2023-01-15T01:40:42.438Z,99843.69
2023-01-15T01:45:35.382Z,99842.27
2023-01-15T01:50:31.125Z,99843.02
2023-01-15T01:55:27.840Z,99839.29
2023-01-15T02:00:22.135Z,99834.56
2023-01-15T02:05:20.684Z,99821.57
2023-01-15T02:10:18.500Z,99807.17
2023-01-15T02:15:18.491Z,99790.89
2023-01-15T02:20:31.097Z,99778.61
2023-01-15T02:25:56.398Z,99774.00
2023-01-15T02:30:56.234Z,99775.20
2023-01-15T02:35:53.916Z,99771.71
2023-01-15T02:40:53.811Z,99777.11
2023-01-15T02:45:50.665Z,99777.14
2023-01-15T02:50:47.254Z,99773.44
2023-01-15T02:55:45.552Z,99769.69
2023-01-15T03:00:45.082Z,99752.35
2023-01-15T03:05:45.322Z,99746.33
2023-01-15T03:11:08.615Z,99716.80
2023-01-15T03:16:28.877Z,99701.57
2023-01-15T03:21:32.541Z,99694.17
2023-01-15T03:26:25.420Z,99686.55
2023-01-15T03:31:19.107Z,99672.06
2023-01-15T03:36:12.140Z,99673.34
2023-01-15T03:41:39.347Z,99687.98
2023-01-15T03:47:00.345Z,99677.31
2023-01-15T03:52:00.470Z,99649.48
2023-01-15T03:57:03.707Z,99643.70
2023-01-15T04:01:59.740Z,99634.86
2023-01-15T04:06:52.980Z,99633.90
2023-01-15T04:11:47.300Z,99630.25
2023-01-15T04:16:40.381Z,99608.56
2023-01-15T04:21:33.728Z,99609.93
2023-01-15T04:26:26.545Z,99607.60
2023-01-15T04:31:20.109Z,99612.17
2023-01-15T04:36:14.592Z,99597.02
2023-01-15T04:41:25.612Z,99579.99
2023-01-15T04:46:23.044Z,99562.05
2023-01-15T04:51:15.939Z,99552.30
2023-01-15T04:56:09.569Z,99556.08
2023-01-15T05:01:03.261Z,99556.27
2023-01-15T05:05:56.469Z,99533.68
2023-01-15T05:10:49.324Z,99522.91
2023-01-15T05:15:42.860Z,99530.63
2023-01-15T05:20:39.107Z,99529.89
2023-01-15T05:25:31.943Z,99526.25
2023-01-15T05:30:24.833Z,99518.98
2023-01-15T05:35:17.676Z,99505.36
2023-01-15T05:40:11.365Z,99503.84
2023-01-15T05:45:04.532Z,99507.73
2023-01-15T05:49:57.355Z,99517.46
2023-01-15T05:54:51.111Z,99512.30
2023-01-15T05:59:44.017Z,99516.23
2023-01-15T06:04:37.868Z,99516.20
2023-01-15T06:09:30.736Z,99494.56
2023-01-15T06:14:23.708Z,99484.55
2023-01-15T06:19:16.565Z,99484.11
2023-01-15T06:24:10.447Z,99472.38
2023-01-15T06:29:03.360Z,99469.20
2023-01-15T06:33:57.116Z,99462.25
2023-01-15T06:38:50.768Z,99451.52
2023-01-15T06:44:00.927Z,99451.90
2023-01-15T06:48:54.830Z,99451.59
2023-01-15T06:53:48.082Z,99449.60
2023-01-15T06:58:41.287Z,99460.12
2023-01-15T07:03:34.564Z,99445.95
2023-01-15T07:08:28.725Z,99431.40
2023-01-15T07:13:21.613Z,99425.96
2023-01-15T07:18:14.464Z,99431.62
2023-01-15T07:23:07.285Z,99428.20
2023-01-15T07:28:00.082Z,99425.34
2023-01-15T07:32:52.875Z,99432.04
2023-01-15T07:37:45.669Z,99434.42
2023-01-15T07:42:56.252Z,99428.98
2023-01-15T07:48:06.366Z,99419.77
2023-01-15T07:52:59.201Z,99412.11
2023-01-15T07:57:53.777Z,99412.02
2023-01-15T08:02:49.852Z,99408.73
2023-01-15T08:07:44.199Z,99409.09
2023-01-15T08:12:57.401Z,99407.91
2023-01-15T08:17:52.465Z,99406.27
2023-01-15T08:22:45.900Z,99403.83
2023-01-15T08:27:40.663Z,99399.48
2023-01-15T08:32:33.530Z,99397.03
2023-01-15T08:37:27.697Z,99392.52
2023-01-15T08:42:22.264Z,99387.70
2023-01-15T08:47:16.642Z,99389.11
2023-01-15T08:52:09.948Z,99388.08
2023-01-15T08:57:03.004Z,99379.02
2023-01-15T09:01:56.065Z,99377.52
2023-01-15T09:06:50.149Z,99375.11
2023-01-15T09:11:45.217Z,99375.94
2023-01-15T09:16:40.540Z,99372.48
2023-01-15T09:21:33.816Z,99368.14
2023-01-15T09:26:33.303Z,99364.58
2023-01-15T09:31:29.008Z,99354.23
2023-01-15T09:36:29.160Z,99351.58
2023-01-15T09:41:41.207Z,99350.11
2023-01-15T09:46:42.931Z,99351.67
2023-01-15T09:51:49.823Z,99346.24
2023-01-15T09:56:42.984Z,99348.55
2023-01-15T10:01:36.416Z,99340.23
2023-01-15T10:06:34.187Z,99335.21
2023-01-15T10:12:00.426Z,99330.54
2023-01-15T10:16:53.602Z,99321.95
2023-01-15T10:22:04.934Z,99328.30
2023-01-15T10:27:01.556Z,99321.27
2023-01-15T10:32:06.932Z,99312.73
2023-01-15T10:36:59.766Z,99303.67
2023-01-15T10:41:58.487Z,99296.46
2023-01-15T10:46:58.614Z,99296.63
2023-01-15T10:51:55.601Z,99288.41
2023-01-15T10:56:53.552Z,99284.52
2023-01-15T11:01:49.007Z,99280.56
2023-01-15T11:06:42.864Z,99280.90
2023-01-15T11:12:02.284Z,99279.02
2023-01-15T11:17:12.764Z,99274.39
2023-01-15T11:22:13.198Z,99262.85
2023-01-15T11:27:08.895Z,99257.70
2023-01-15T11:32:01.782Z,99258.71
2023-01-15T11:37:06.214Z,99251.50
2023-01-15T11:42:25.322Z,99248.58
2023-01-15T11:47:37.818Z,99242.23
2023-01-15T11:52:31.605Z,99238.30
2023-01-15T11:57:29.086Z,99231.11
2023-01-15T12:02:31.153Z,99230.64
2023-01-15T12:07:26.830Z,99225.66
2023-01-15T12:12:46.146Z,99220.71
2023-01-15T12:18:07.089Z,99216.64
2023-01-15T12:23:21.320Z,99211.88
2023-01-15T12:28:20.998Z,99209.65
2023-01-15T12:34:04.987Z,99209.63
2023-01-15T12:39:02.839Z,99216.33
2023-01-15T12:44:29.226Z,99213.59
2023-01-15T12:49:35.700Z,99220.96
2023-01-15T12:54:47.354Z,99215.83
2023-01-15T12:59:55.714Z,99215.15
2023-01-15T13:05:03.616Z,99216.02
2023-01-15T13:10:21.637Z,99220.16
2023-01-15T13:15:17.793Z,99222.42
2023-01-15T13:20:15.399Z,99223.86
2023-01-15T13:25:08.535Z,99217.73
2023-01-15T13:30:16.859Z,99216.22
2023-01-15T13:35:21.518Z,99216.58
2023-01-15T13:40:43.759Z,99218.31
2023-01-15T13:45:51.939Z,99215.59
2023-01-15T13:51:16.648Z,99219.04
2023-01-15T13:56:32.532Z,99220.94
2023-01-15T14:01:30.950Z,99224.21
2023-01-15T14:06:23.863Z,99224.57
2023-01-15T14:11:37.969Z,99220.81
2023-01-15T14:16:51.284Z,99225.62
2023-01-15T14:21:59.050Z,99227.69
2023-01-15T14:27:00.151Z,99228.70
2023-01-15T14:32:16.312Z,99228.38
2023-01-15T14:37:27.882Z,99239.17
2023-01-15T14:42:41.099Z,99240.55
2023-01-15T14:47:45.423Z,99249.15
2023-01-15T14:52:38.724Z,99241.77
2023-01-15T14:57:31.870Z,99236.27
2023-01-15T15:02:46.012Z,99240.55
2023-01-15T15:07:44.658Z,99238.85
2023-01-15T15:12:58.166Z,99235.59
2023-01-15T15:18:12.830Z,99231.98
2023-01-15T15:23:29.348Z,99232.69
2023-01-15T15:28:22.869Z,99236.81
2023-01-15T15:33:21.935Z,99225.66
2023-01-15T15:38:21.636Z,99223.41
2023-01-15T15:43:38.270Z,99221.69
2023-01-15T15:48:45.624Z,99216.52
2023-01-15T15:53:49.975Z,99224.10
2023-01-15T15:58:43.375Z,99224.78
2023-01-15T16:03:36.827Z,99214.85
2023-01-15T16:08:35.695Z,99207.31
2023-01-15T16:13:34.043Z,99211.80
2023-01-15T16:18:31.308Z,99226.23
2023-01-15T16:23:27.072Z,99228.63
2023-01-15T16:28:27.543Z,99231.77
2023-01-15T16:33:20.784Z,99236.95
2023-01-15T16:38:21.868Z,99243.30
2023-01-15T16:43:18.137Z,99238.50
2023-01-15T16:48:27.505Z,99242.23
2023-01-15T16:53:33.825Z,99247.02
2023-01-15T16:58:38.404Z,99252.99
2023-01-15T17:03:33.865Z,99261.39
2023-01-15T17:08:39.835Z,99271.14
2023-01-15T17:13:36.792Z,99276.79
2023-01-15T17:18:30.621Z,99273.68
2023-01-15T17:23:27.473Z,99277.45
2023-01-15T17:28:24.485Z,99287.94
2023-01-15T17:33:27.648Z,99294.13
2023-01-15T17:38:21.036Z,99300.50
2023-01-15T17:43:15.851Z,99305.18
2023-01-15T17:48:10.013Z,99312.42
2023-01-15T17:53:03.452Z,99317.95
2023-01-15T17:58:17.023Z,99321.45
2023-01-15T18:03:37.019Z,99338.47
2023-01-15T18:08:33.529Z,99349.67
2023-01-15T18:13:26.442Z,99355.36
2023-01-15T18:18:20.556Z,99351.63
2023-01-15T18:23:13.774Z,99362.27
2023-01-15T18:28:07.003Z,99368.99
2023-01-15T18:33:02.694Z,99369.34
2023-01-15T18:37:56.384Z,99366.08
2023-01-15T18:43:06.840Z,99366.10
2023-01-15T18:48:03.757Z,99370.91
2023-01-15T18:52:57.215Z,99371.41
2023-01-15T18:57:50.640Z,99374.15
2023-01-15T19:02:45.280Z,99374.83
2023-01-15T19:07:38.315Z,99382.89
2023-01-15T19:12:31.275Z,99392.17
2023-01-15T19:17:43.590Z,99393.20
2023-01-15T19:22:56.837Z,99399.41
2023-01-15T19:27:55.472Z,99399.21
2023-01-15T19:32:48.631Z,99389.58
2023-01-15T19:37:41.962Z,99401.57
2023-01-15T19:42:52.212Z,99416.66
2023-01-15T19:48:02.791Z,99410.99
2023-01-15T19:52:59.324Z,99398.09
2023-01-15T19:58:01.881Z,99408.02
2023-01-15T20:02:54.929Z,99419.09
2023-01-15T20:07:47.927Z,99422.28
2023-01-15T20:12:58.598Z,99431.48
2023-01-15T20:17:51.863Z,99441.55
2023-01-15T20:22:45.078Z,99437.71
2023-01-15T20:27:40.390Z,99433.53
2023-01-15T20:32:33.857Z,99431.97
2023-01-15T20:37:26.959Z,99440.17
2023-01-15T20:42:37.531Z,99441.52
2023-01-15T20:47:48.121Z,99440.96
2023-01-15T20:52:45.461Z,99443.13
2023-01-15T20:57:41.178Z,99434.33
2023-01-15T21:02:34.105Z,99443.70
2023-01-15T21:07:27.228Z,99440.92
2023-01-15T21:12:20.099Z,99442.80
2023-01-15T21:17:13.329Z,99437.61
2023-01-15T21:22:06.332Z,99448.05
2023-01-15T21:26:59.153Z,99448.75
2023-01-15T21:31:54.056Z,99445.66
2023-01-15T21:36:47.300Z,99446.30
2023-01-15T21:41:57.977Z,99446.77
2023-01-15T21:46:50.985Z,99442.80
2023-01-15T21:51:43.960Z,99445.85
2023-01-15T21:56:38.463Z,99449.60
2023-01-15T22:01:31.485Z,99451.61
2023-01-15T22:06:24.664Z,99456.91
2023-01-15T22:11:17.557Z,99454.11
2023-01-15T22:16:10.475Z,99457.15
2023-01-15T22:21:15.023Z,99461.23
2023-01-15T22:26:08.019Z,99459.66
2023-01-15T22:31:00.879Z,99467.02
2023-01-15T22:35:58.866Z,99460.95
2023-01-15T22:40:51.915Z,99456.61
2023-01-15T22:45:57.465Z,99456.39
2023-01-15T22:50:50.400Z,99457.73
2023-01-15T22:55:43.325Z,99460.30
2023-01-15T23:00:36.154Z,99452.86
2023-01-15T23:05:29.930Z,99456.95
2023-01-15T23:10:22.874Z,99465.66
2023-01-15T23:15:18.649Z,99461.83
2023-01-15T23:20:13.143Z,99447.00
2023-01-15T23:25:09.243Z,99444.36
2023-01-15T23:30:02.300Z,99451.87
2023-01-15T23:34:55.119Z,99447.88
2023-01-15T23:39:48.045Z,99449.39
2023-01-15T23:44:58.705Z,99451.58
2023-01-15T23:49:51.617Z,99439.17
2023-01-15T23:54:44.393Z,99439.65
2023-01-15T23:59:37.244Z,99439.23
